createdAt,value
2018-12-29T00:00:48.772Z,4.40
2018-12-29T00:03:19.404Z,4.40
2018-12-29T00:05:49.917Z,4.30
2018-12-29T00:08:20.377Z,4.30
2018-12-29T00:10:50.850Z,4.30
2018-12-29T00:13:21.272Z,4.30
2018-12-29T00:15:51.805Z,4.30
2018-12-29T00:18:22.179Z,4.20
2018-12-29T00:20:52.572Z,4.30
2018-12-29T00:23:23.393Z,4.30
2018-12-29T00:25:54.034Z,4.20
2018-12-29T00:28:24.573Z,4.20
2018-12-29T00:30:55.019Z,4.30
2018-12-29T00:33:25.574Z,4.30
2018-12-29T00:35:55.958Z,4.30
2018-12-29T00:38:26.449Z,4.30
2018-12-29T00:40:56.970Z,4.30
2018-12-29T00:43:27.373Z,4.20
2018-12-29T00:45:57.936Z,4.20
2018-12-29T00:48:28.303Z,4.30
2018-12-29T00:50:59.038Z,4.30
2018-12-29T00:53:29.629Z,4.20
2018-12-29T00:56:00.405Z,4.30
2018-12-29T00:58:30.842Z,4.30
2018-12-29T01:01:01.725Z,4.40
2018-12-29T01:03:32.332Z,4.40
2018-12-29T01:06:02.858Z,4.30
2018-12-29T01:08:33.346Z,4.30
2018-12-29T01:11:03.810Z,4.30
2018-12-29T01:13:34.242Z,4.30
2018-12-29T01:16:04.693Z,4.30
2018-12-29T01:18:36.061Z,4.30
2018-12-29T01:21:06.634Z,4.30
2018-12-29T01:23:37.163Z,4.30
2018-12-29T01:26:07.963Z,4.30
2018-12-29T01:28:39.745Z,4.30
2018-12-29T01:31:10.316Z,4.30
2018-12-29T01:33:40.710Z,4.40
2018-12-29T01:36:11.378Z,4.30
2018-12-29T01:38:43.727Z,4.30
2018-12-29T01:41:14.788Z,4.30
2018-12-29T01:43:45.328Z,4.30
2018-12-29T01:46:15.791Z,4.20
2018-12-29T01:48:46.296Z,4.30
2018-12-29T01:51:16.769Z,4.20
2018-12-29T01:53:48.797Z,4.20
2018-12-29T01:56:19.512Z,4.20
2018-12-29T01:58:50.043Z,4.30
2018-12-29T02:01:20.534Z,4.20
2018-12-29T02:03:51.009Z,4.20
2018-12-29T02:06:21.472Z,4.30
2018-12-29T02:08:51.950Z,4.20
2018-12-29T02:11:22.335Z,4.30
2018-12-29T02:13:52.752Z,4.30
2018-12-29T02:16:23.286Z,4.30
2018-12-29T02:18:53.684Z,4.30
2018-12-29T02:21:24.391Z,4.30
2018-12-29T02:23:54.878Z,4.30
2018-12-29T02:26:25.407Z,4.30
2018-12-29T02:28:56.128Z,4.30
2018-12-29T02:31:26.526Z,4.30
2018-12-29T02:33:57.028Z,4.30
2018-12-29T02:36:27.424Z,4.30
2018-12-29T02:38:58.677Z,4.30
2018-12-29T02:41:29.260Z,4.20
2018-12-29T02:43:59.812Z,4.20
2018-12-29T02:46:30.287Z,4.20
2018-12-29T02:49:00.714Z,4.20
2018-12-29T02:51:31.208Z,4.20
2018-12-29T02:54:01.622Z,4.20
2018-12-29T02:56:32.000Z,4.20
2018-12-29T02:59:02.812Z,4.20
2018-12-29T03:01:33.217Z,4.20
2018-12-29T03:04:03.750Z,4.20
2018-12-29T03:06:34.162Z,4.20
2018-12-29T03:09:05.462Z,4.10
2018-12-29T03:11:35.987Z,4.10
2018-12-29T03:14:06.395Z,4.10
2018-12-29T03:16:37.015Z,4.00
2018-12-29T03:19:07.459Z,4.00
2018-12-29T03:21:38.089Z,4.00
2018-12-29T03:24:08.489Z,4.00
2018-12-29T03:26:39.071Z,4.00
2018-12-29T03:29:09.591Z,4.00
2018-12-29T03:31:40.311Z,4.00
2018-12-29T03:34:10.680Z,4.00
2018-12-29T03:36:41.140Z,4.00
2018-12-29T03:39:11.613Z,4.00
2018-12-29T03:41:43.152Z,3.90
2018-12-29T03:44:13.590Z,4.00
2018-12-29T03:46:43.994Z,3.90
2018-12-29T03:49:14.431Z,3.90
2018-12-29T03:51:45.591Z,3.90
2018-12-29T03:54:16.028Z,3.90
2018-12-29T03:56:46.547Z,3.90
2018-12-29T03:59:17.233Z,3.90
2018-12-29T04:01:48.044Z,3.90
2018-12-29T04:04:18.675Z,3.90
2018-12-29T04:06:49.159Z,3.90
2018-12-29T04:09:35.622Z,3.90
2018-12-29T04:12:13.869Z,3.90
2018-12-29T04:14:44.886Z,4.00
2018-12-29T04:17:15.412Z,4.00
2018-12-29T04:19:45.812Z,4.00
2018-12-29T04:22:16.439Z,4.00
2018-12-29T04:24:46.876Z,4.10
2018-12-29T04:27:17.332Z,4.00
2018-12-29T04:29:47.904Z,4.10
2018-12-29T04:32:18.965Z,4.10
2018-12-29T04:34:49.551Z,4.10
2018-12-29T04:37:20.039Z,4.10
2018-12-29T04:39:50.502Z,4.10
2018-12-29T04:42:21.088Z,4.10
2018-12-29T04:44:51.578Z,4.10
2018-12-29T04:47:22.077Z,4.10
2018-12-29T04:49:52.912Z,4.10
2018-12-29T04:52:23.344Z,4.10
2018-12-29T04:54:53.803Z,4.10
2018-12-29T04:57:24.212Z,4.10
2018-12-29T04:59:54.761Z,4.10
2018-12-29T05:02:25.443Z,4.10
2018-12-29T05:04:56.653Z,4.00
2018-12-29T05:07:27.172Z,4.00
2018-12-29T05:09:57.613Z,4.00
2018-12-29T05:12:30.679Z,4.00
2018-12-29T05:15:00.493Z,4.00
2018-12-29T05:17:30.909Z,4.00
2018-12-29T05:20:01.350Z,4.00
2018-12-29T05:22:31.743Z,4.00
2018-12-29T05:25:02.721Z,4.00
2018-12-29T05:27:33.182Z,4.00
2018-12-29T05:30:04.931Z,4.00
2018-12-29T05:32:35.668Z,4.00
2018-12-29T05:35:06.331Z,4.00
2018-12-29T05:37:37.557Z,4.00
2018-12-29T05:40:08.046Z,4.00
2018-12-29T05:42:38.601Z,4.00
2018-12-29T05:45:09.283Z,4.00
2018-12-29T05:47:39.716Z,3.90
2018-12-29T05:50:10.702Z,3.90
2018-12-29T05:52:41.179Z,3.90
2018-12-29T05:55:11.818Z,3.90
2018-12-29T05:57:42.397Z,3.90
2018-12-29T06:00:13.023Z,3.80
2018-12-29T06:02:43.960Z,3.80
2018-12-29T06:05:14.608Z,3.80
2018-12-29T06:07:45.136Z,3.80
2018-12-29T06:10:17.232Z,3.90
2018-12-29T06:12:47.699Z,3.80
2018-12-29T06:15:18.589Z,3.80
2018-12-29T06:17:49.076Z,3.90
2018-12-29T06:20:19.829Z,4.00
2018-12-29T06:22:50.326Z,3.90
2018-12-29T06:25:22.435Z,3.90
2018-12-29T06:27:53.271Z,3.90
2018-12-29T06:30:23.723Z,3.80
2018-12-29T06:32:54.457Z,3.80
2018-12-29T06:35:24.909Z,3.80
2018-12-29T06:37:55.557Z,3.80
2018-12-29T06:40:26.079Z,3.80
2018-12-29T06:42:56.557Z,3.80
2018-12-29T06:45:26.936Z,3.90
2018-12-29T06:47:57.307Z,3.90
2018-12-29T06:50:27.931Z,3.80
2018-12-29T06:52:58.399Z,3.90
2018-12-29T06:55:29.668Z,3.80
2018-12-29T06:58:00.148Z,3.80
2018-12-29T07:00:31.507Z,3.80
2018-12-29T07:03:02.240Z,3.80
2018-12-29T07:05:32.822Z,3.80
2018-12-29T07:08:03.274Z,3.90
2018-12-29T07:10:33.828Z,3.90
2018-12-29T07:13:04.259Z,4.00
2018-12-29T07:15:34.751Z,4.00
2018-12-29T07:18:05.178Z,3.90
2018-12-29T07:20:35.610Z,3.90
2018-12-29T07:23:06.176Z,3.90
2018-12-29T07:25:36.551Z,3.90
2018-12-29T07:28:07.152Z,4.00
2018-12-29T07:30:37.742Z,4.00
2018-12-29T07:33:08.587Z,4.10
2018-12-29T07:35:39.111Z,4.10
2018-12-29T07:38:09.852Z,4.10
2018-12-29T07:40:40.397Z,4.10
2018-12-29T07:43:11.106Z,4.20
2018-12-29T07:45:41.632Z,4.20
2018-12-29T07:48:13.387Z,4.20
2018-12-29T07:50:44.812Z,4.20
2018-12-29T07:53:15.224Z,4.30
2018-12-29T07:55:45.915Z,4.30
2018-12-29T07:58:16.315Z,4.40
2018-12-29T08:00:46.727Z,4.50
2018-12-29T08:03:19.709Z,4.60
2018-12-29T08:05:51.123Z,4.60
2018-12-29T08:08:24.734Z,4.60
2018-12-29T08:10:55.153Z,4.70
2018-12-29T08:13:28.185Z,4.80
2018-12-29T08:15:58.866Z,4.80
2018-12-29T08:18:30.424Z,4.90
2018-12-29T08:21:02.387Z,4.90
2018-12-29T08:23:34.484Z,4.90
2018-12-29T08:26:05.275Z,5.00
2018-12-29T08:28:35.797Z,4.90
2018-12-29T08:31:06.296Z,5.00
2018-12-29T08:33:36.947Z,4.90
2018-12-29T08:36:07.507Z,5.10
2018-12-29T08:38:41.794Z,5.10
2018-12-29T08:41:12.330Z,5.00
2018-12-29T08:43:42.812Z,5.00
2018-12-29T08:46:13.379Z,5.00
2018-12-29T08:48:43.871Z,5.10
2018-12-29T08:51:15.899Z,5.10
2018-12-29T08:53:46.322Z,5.10
2018-12-29T08:56:16.762Z,5.10
2018-12-29T08:58:47.198Z,5.10
2018-12-29T09:01:17.766Z,5.20
2018-12-29T09:03:48.237Z,5.20
2018-12-29T09:06:19.699Z,5.20
2018-12-29T09:08:50.728Z,5.30
2018-12-29T09:11:21.203Z,5.30
2018-12-29T09:13:51.574Z,5.30
2018-12-29T09:16:22.028Z,5.30
2018-12-29T09:18:52.702Z,5.30
2018-12-29T09:21:23.172Z,5.30
2018-12-29T09:23:53.747Z,5.40
2018-12-29T09:26:24.154Z,5.50
2018-12-29T09:28:54.980Z,5.50
2018-12-29T09:31:25.431Z,5.50
2018-12-29T09:33:57.841Z,5.60
2018-12-29T09:36:28.597Z,5.60
2018-12-29T09:38:59.038Z,5.70
2018-12-29T09:41:29.479Z,5.90
2018-12-29T09:44:00.047Z,5.90
2018-12-29T09:46:30.395Z,6.00
2018-12-29T09:49:00.964Z,6.00
2018-12-29T09:51:31.514Z,6.00
2018-12-29T09:54:06.287Z,6.10
2018-12-29T09:56:36.804Z,6.10
2018-12-29T09:59:07.308Z,6.20
2018-12-29T10:01:38.542Z,6.10
2018-12-29T10:04:09.239Z,6.10
2018-12-29T10:06:39.925Z,6.20
2018-12-29T10:09:10.516Z,6.20
2018-12-29T10:11:40.931Z,6.20
2018-12-29T10:14:11.631Z,6.20
2018-12-29T10:16:42.199Z,6.30
2018-12-29T10:19:12.757Z,6.40
2018-12-29T10:21:43.231Z,6.60
2018-12-29T10:24:13.648Z,6.70
2018-12-29T10:26:44.340Z,6.90
2018-12-29T10:48:21.767Z,7.80
2018-12-29T10:50:53.353Z,7.70
2018-12-29T10:53:27.698Z,7.70
2018-12-29T10:55:58.151Z,7.70
2018-12-29T10:58:29.191Z,7.60
2018-12-29T11:01:02.462Z,7.60
2018-12-29T11:03:33.409Z,7.70
2018-12-29T11:06:05.477Z,7.70
2018-12-29T11:08:36.148Z,7.70
2018-12-29T11:11:10.044Z,7.70
2018-12-29T11:13:42.425Z,7.80
2018-12-29T11:16:12.989Z,7.90
2018-12-29T11:18:43.791Z,7.90
2018-12-29T11:21:14.537Z,7.80
2018-12-29T11:23:44.918Z,7.50
2018-12-29T11:26:18.590Z,7.50
2018-12-29T11:28:49.155Z,7.50
2018-12-29T11:31:20.205Z,7.40
2018-12-29T11:33:51.043Z,7.30
2018-12-29T11:36:24.177Z,7.20
2018-12-29T11:38:57.084Z,7.10
2018-12-29T11:41:29.399Z,7.00
2018-12-29T11:44:07.303Z,7.00
2018-12-29T11:46:38.171Z,6.90
2018-12-29T11:49:18.102Z,7.00
2018-12-29T11:51:48.863Z,6.90
2018-12-29T11:54:19.480Z,6.90
2018-12-29T11:56:50.098Z,6.90
2018-12-29T11:59:20.721Z,7.10
2018-12-29T12:01:51.297Z,7.00
2018-12-29T12:04:22.039Z,7.00
2018-12-29T12:06:52.673Z,7.00
2018-12-29T12:09:23.515Z,7.00
2018-12-29T12:11:54.309Z,7.00
2018-12-29T12:14:24.933Z,7.00
2018-12-29T12:16:55.599Z,7.10
2018-12-29T12:19:26.435Z,7.10
2018-12-29T12:21:56.879Z,7.10
2018-12-29T12:24:27.346Z,7.10
2018-12-29T12:26:57.819Z,7.10
2018-12-29T12:29:28.282Z,7.20
2018-12-29T12:31:58.814Z,7.20
2018-12-29T12:34:29.312Z,7.20
2018-12-29T12:36:59.754Z,7.10
2018-12-29T12:39:30.447Z,7.20
2018-12-29T12:42:02.568Z,7.10
2018-12-29T12:44:33.309Z,7.10
2018-12-29T12:47:03.894Z,7.00
2018-12-29T12:52:34.456Z,7.10
2018-12-29T12:55:05.339Z,7.00
2018-12-29T12:57:35.923Z,7.00
2018-12-29T13:00:09.630Z,6.90
2018-12-29T13:02:40.290Z,6.90
2018-12-29T13:05:10.805Z,6.80
2018-12-29T13:07:41.338Z,6.80
2018-12-29T13:10:11.777Z,6.80
2018-12-29T13:12:42.270Z,6.80
2018-12-29T13:15:14.384Z,6.80
2018-12-29T13:17:44.932Z,6.80
2018-12-29T13:20:15.467Z,6.80
2018-12-29T13:22:46.880Z,6.70
2018-12-29T13:25:18.332Z,6.70
2018-12-29T13:27:48.877Z,6.70
2018-12-29T13:30:19.373Z,6.70
2018-12-29T13:32:50.159Z,6.70
2018-12-29T13:35:20.612Z,6.70
2018-12-29T13:37:50.990Z,6.70
2018-12-29T13:40:22.491Z,6.70
2018-12-29T13:42:52.891Z,6.80
2018-12-29T13:45:23.338Z,6.70
2018-12-29T13:47:53.723Z,6.70
2018-12-29T13:50:24.162Z,6.70
2018-12-29T13:52:54.918Z,6.80
2018-12-29T13:55:27.095Z,6.70
2018-12-29T13:57:57.740Z,6.80
2018-12-29T14:00:28.897Z,6.60
2018-12-29T14:03:02.522Z,6.60
2018-12-29T14:05:34.848Z,6.60
2018-12-29T14:08:05.256Z,6.60
2018-12-29T14:10:36.826Z,6.60
2018-12-29T14:13:09.334Z,6.50
2018-12-29T14:15:39.809Z,6.50
2018-12-29T14:18:10.445Z,6.50
2018-12-29T14:20:41.322Z,6.40
2018-12-29T14:23:12.063Z,6.40
2018-12-29T14:25:42.746Z,6.30
2018-12-29T14:28:13.380Z,6.30
2018-12-29T14:30:44.100Z,6.30
2018-12-29T14:33:14.601Z,6.20
2018-12-29T14:35:45.006Z,6.20
2018-12-29T14:38:15.509Z,6.20
2018-12-29T14:40:46.125Z,6.20
2018-12-29T14:43:16.763Z,6.10
2018-12-29T14:45:47.205Z,6.10
2018-12-29T14:48:17.691Z,6.10
2018-12-29T14:50:49.349Z,6.00
2018-12-29T14:53:20.093Z,6.00
2018-12-29T14:55:50.563Z,6.00
2018-12-29T14:58:21.153Z,5.90
2018-12-29T15:00:52.737Z,5.90
2018-12-29T15:03:23.210Z,6.10
2018-12-29T15:05:53.670Z,5.80
2018-12-29T15:08:25.037Z,5.80
2018-12-29T15:10:55.487Z,5.80
2018-12-29T15:13:26.187Z,5.70
2018-12-29T15:15:56.561Z,5.70
2018-12-29T15:18:27.330Z,5.50
2018-12-29T15:20:58.313Z,5.70
2018-12-29T15:23:30.373Z,5.50
2018-12-29T15:26:01.289Z,5.70
2018-12-29T15:28:31.831Z,5.70
2018-12-29T15:31:02.237Z,5.60
2018-12-29T15:33:32.935Z,5.40
2018-12-29T15:36:03.460Z,5.50
2018-12-29T15:38:34.227Z,5.60
2018-12-29T15:41:05.041Z,5.60
2018-12-29T15:43:35.553Z,5.50
2018-12-29T15:46:06.094Z,5.50
2018-12-29T15:48:36.666Z,5.50
2018-12-29T15:51:07.378Z,5.40
2018-12-29T15:53:38.062Z,5.40
2018-12-29T15:56:08.609Z,5.40
2018-12-29T15:58:39.104Z,5.40
2018-12-29T16:01:09.918Z,5.30
2018-12-29T16:03:40.327Z,5.30
2018-12-29T16:06:10.968Z,5.30
2018-12-29T16:08:41.452Z,5.30
2018-12-29T16:11:12.604Z,5.30
2018-12-29T16:13:45.113Z,5.30
2018-12-29T16:16:15.664Z,5.30
2018-12-29T16:18:46.150Z,5.30
2018-12-29T16:21:16.973Z,5.30
2018-12-29T16:23:47.648Z,5.20
2018-12-29T16:26:18.142Z,5.10
2018-12-29T16:28:48.795Z,5.20
2018-12-29T16:31:19.261Z,5.10
2018-12-29T16:33:53.965Z,5.10
2018-12-29T16:36:23.086Z,5.10
2018-12-29T16:38:53.531Z,5.10
2018-12-29T16:41:24.012Z,5.10
2018-12-29T16:43:54.868Z,5.10
2018-12-29T16:46:25.549Z,5.20
2018-12-29T16:48:56.021Z,5.20
2018-12-29T16:51:27.123Z,5.10
2018-12-29T16:53:57.932Z,5.10
2018-12-29T16:56:28.675Z,5.10
2018-12-29T16:58:59.205Z,5.10
2018-12-29T17:01:31.961Z,5.10
2018-12-29T17:04:02.584Z,5.10
2018-12-29T17:06:34.237Z,5.00
2018-12-29T17:09:06.938Z,5.10
2018-12-29T17:11:37.659Z,5.10
2018-12-29T17:14:08.106Z,5.10
2018-12-29T17:16:38.854Z,5.00
2018-12-29T17:19:14.586Z,5.10
2018-12-29T17:21:41.516Z,5.10
2018-12-29T17:24:12.718Z,5.00
2018-12-29T17:26:43.913Z,5.00
2018-12-29T17:29:14.674Z,5.00
2018-12-29T17:31:45.826Z,5.00
2018-12-29T17:34:16.395Z,5.00
2018-12-29T17:36:46.840Z,5.00
2018-12-29T17:39:17.450Z,4.90
2018-12-29T17:41:47.993Z,5.00
2018-12-29T17:44:18.504Z,4.70
2018-12-29T17:46:52.367Z,4.90
2018-12-29T17:49:23.278Z,4.90
2018-12-29T17:51:55.084Z,4.90
2018-12-29T17:54:25.642Z,5.00
2018-12-29T17:56:56.476Z,5.00
2018-12-29T17:59:27.253Z,4.90
2018-12-29T18:01:59.098Z,4.90
2018-12-29T18:04:30.513Z,4.90
2018-12-29T18:07:02.683Z,4.90
2018-12-29T18:09:33.347Z,4.80
2018-12-29T18:12:06.644Z,4.90
2018-12-29T18:14:37.562Z,4.80
2018-12-29T18:17:09.465Z,4.90
2018-12-29T18:19:40.906Z,4.80
2018-12-29T18:22:14.310Z,4.90
2018-12-29T18:24:47.494Z,4.80
2018-12-29T18:27:18.516Z,4.80
2018-12-29T18:29:49.838Z,4.80
2018-12-29T18:32:22.805Z,4.90
2018-12-29T18:34:54.588Z,4.90
2018-12-29T18:37:26.426Z,4.90
2018-12-29T18:39:58.298Z,4.90
2018-12-29T18:42:31.157Z,4.90
2018-12-29T18:45:02.102Z,4.90
2018-12-29T18:47:33.129Z,4.90
2018-12-29T18:50:04.754Z,5.00
2018-12-29T18:52:39.000Z,5.00
2018-12-29T18:55:11.232Z,4.90
2018-12-29T18:57:43.233Z,4.90
2018-12-29T19:00:13.930Z,4.90
2018-12-29T19:02:44.553Z,4.90
2018-12-29T19:05:14.980Z,4.90
2018-12-29T19:07:45.703Z,4.90
2018-12-29T19:10:16.389Z,4.90
2018-12-29T19:12:47.166Z,4.80
2018-12-29T19:15:17.702Z,4.90
2018-12-29T19:17:48.766Z,4.90
2018-12-29T19:20:19.542Z,4.80
2018-12-29T19:22:50.130Z,4.80
2018-12-29T19:25:27.068Z,4.90
2018-12-29T19:27:58.189Z,4.80
2018-12-29T19:30:29.121Z,4.90
2018-12-29T19:33:00.133Z,4.90
2018-12-29T19:35:31.088Z,4.90
2018-12-29T19:38:01.674Z,5.00
2018-12-29T19:40:33.985Z,5.00
2018-12-29T19:43:05.508Z,5.00
2018-12-29T19:45:36.446Z,5.00
2018-12-29T19:48:07.944Z,5.00
2018-12-29T19:50:38.439Z,5.00
2018-12-29T19:53:09.771Z,5.00
2018-12-29T19:55:40.263Z,5.00
2018-12-29T19:58:14.111Z,5.00
2018-12-29T20:00:44.749Z,4.90
2018-12-29T20:03:15.945Z,5.00
2018-12-29T20:05:46.996Z,5.00
2018-12-29T20:08:17.480Z,5.00
2018-12-29T20:10:48.339Z,4.90
2018-12-29T20:13:18.806Z,4.90
2018-12-29T20:15:49.416Z,4.90
2018-12-29T20:18:19.918Z,4.90
2018-12-29T20:20:50.436Z,4.90
2018-12-29T20:23:21.022Z,4.90
2018-12-29T20:25:51.612Z,4.90
2018-12-29T20:28:22.540Z,4.90
2018-12-29T20:30:53.097Z,4.90
2018-12-29T20:33:27.166Z,4.90
2018-12-29T20:35:57.517Z,4.80
2018-12-29T20:38:28.662Z,4.90
2018-12-29T20:40:59.133Z,4.90
2018-12-29T20:43:29.633Z,4.80
2018-12-29T20:46:00.132Z,4.90
2018-12-29T20:48:30.538Z,4.80
2018-12-29T20:51:00.928Z,4.90
2018-12-29T20:53:31.519Z,4.80
2018-12-29T20:56:01.931Z,4.80
2018-12-29T20:58:33.127Z,4.80
2018-12-29T21:01:03.746Z,4.80
2018-12-29T21:03:35.211Z,4.80
2018-12-29T21:06:05.717Z,4.80
2018-12-29T21:08:37.189Z,4.80
2018-12-29T21:11:07.578Z,4.80
2018-12-29T21:13:38.208Z,4.70
2018-12-29T21:16:08.652Z,4.70
2018-12-29T21:18:39.242Z,4.70
2018-12-29T21:21:10.041Z,4.70
2018-12-29T21:23:40.588Z,4.70
2018-12-29T21:26:11.109Z,4.70
2018-12-29T21:28:42.038Z,4.70
2018-12-29T21:31:12.416Z,4.80
2018-12-29T21:33:43.585Z,4.80
2018-12-29T21:36:14.152Z,4.80
2018-12-29T21:38:44.805Z,4.80
2018-12-29T21:41:15.255Z,4.80
2018-12-29T21:43:45.867Z,4.80
2018-12-29T21:46:16.925Z,4.70
2018-12-29T21:48:54.717Z,4.70
2018-12-29T21:51:25.213Z,4.70
2018-12-29T21:53:55.638Z,4.70
2018-12-29T21:56:26.109Z,4.70
2018-12-29T21:58:56.934Z,4.70
2018-12-29T22:01:27.351Z,4.70
2018-12-29T22:03:57.817Z,4.70
2018-12-29T22:06:28.337Z,4.70
2018-12-29T22:09:01.871Z,4.60
2018-12-29T22:11:32.385Z,4.60
2018-12-29T22:14:02.933Z,4.70
2018-12-29T22:16:33.455Z,4.60
2018-12-29T22:19:04.409Z,4.60
2018-12-29T22:21:34.803Z,4.60
2018-12-29T22:24:05.272Z,4.60
2018-12-29T22:26:35.769Z,4.60
2018-12-29T22:29:06.576Z,4.60
2018-12-29T22:31:37.340Z,4.50
2018-12-29T22:34:07.973Z,4.50
2018-12-29T22:36:38.382Z,4.50
2018-12-29T22:39:08.968Z,4.50
2018-12-29T22:41:39.407Z,4.50
2018-12-29T22:44:09.806Z,4.50
2018-12-29T22:46:40.291Z,4.50
2018-12-29T22:49:10.726Z,4.40
2018-12-29T22:51:41.193Z,4.40
2018-12-29T22:54:11.847Z,4.40
2018-12-29T22:56:42.363Z,4.40
2018-12-29T22:59:13.102Z,4.40
2018-12-29T23:01:43.615Z,4.40
2018-12-29T23:04:14.310Z,4.40
2018-12-29T23:06:46.286Z,4.40
2018-12-29T23:09:17.399Z,4.40
2018-12-29T23:11:47.948Z,4.40
2018-12-29T23:14:18.611Z,4.40
2018-12-29T23:16:49.144Z,4.40
2018-12-29T23:19:19.896Z,4.30
2018-12-29T23:21:50.318Z,4.40
2018-12-29T23:24:20.846Z,4.30
2018-12-29T23:26:51.266Z,4.40
2018-12-29T23:29:22.284Z,4.40
2018-12-29T23:31:52.765Z,4.40
2018-12-29T23:34:23.247Z,4.40
2018-12-29T23:36:53.642Z,4.40
2018-12-29T23:39:24.181Z,4.30
2018-12-29T23:41:54.924Z,4.30
2018-12-29T23:44:25.339Z,4.30
2018-12-29T23:46:55.927Z,4.30
2018-12-29T23:49:26.510Z,4.30
2018-12-29T23:51:57.339Z,4.30
2018-12-29T23:54:30.538Z,4.20
2018-12-29T23:57:01.291Z,4.20
2018-12-29T23:59:32.067Z,4.20
